Time;durP1;ratioP1;P1;durP2;ratioP2;P2;SDS_P1;SDS_P2;PMS_P1;PMS_P2;Temp;Humidity;BMP_temperature;BMP_pressure;BME280_temperature;BME280_humidity;BME280_pressure;Samples;Min_cycle;Max_cycle;Signal;HPM_P1;HPM_P2
2022/12/10 00:02:18;;;;;;;13.10;7.70;;;;;;;12.96;76.53;93996.50;5009061;28;20287;-46
2022/12/10 00:04:44;;;;;;;16.03;7.23;;;;;;;12.93;76.75;93999.38;5009662;28;20188;-46
2022/12/10 00:07:11;;;;;;;11.23;6.80;;;;;;;12.96;76.70;94011.88;5009830;28;20191;-45
2022/12/10 00:09:39;;;;;;;16.30;6.83;;;;;;;12.96;76.87;93995.69;5009635;28;20196;-44
2022/12/10 00:12:06;;;;;;;17.27;7.07;;;;;;;12.95;76.77;94005.16;5009736;28;20192;-48
2022/12/10 00:14:32;;;;;;;10.67;6.93;;;;;;;12.83;76.65;93980.06;5009044;28;20196;-44
2022/12/10 00:16:59;;;;;;;10.53;7.10;;;;;;;12.96;76.61;94003.41;5009534;28;20749;-44
2022/12/10 00:19:28;;;;;;;13.37;6.10;;;;;;;12.96;76.83;93999.06;5009572;28;20235;-45
2022/12/10 00:21:54;;;;;;;10.80;6.17;;;;;;;12.94;76.62;94000.19;5009590;28;20196;-45
2022/12/10 00:24:21;;;;;;;13.60;6.80;;;;;;;12.97;76.71;93989.59;5009427;28;20196;-46
2022/12/10 00:26:48;;;;;;;11.57;6.70;;;;;;;12.95;76.70;93999.22;5009664;28;20237;-47
2022/12/10 00:29:15;;;;;;;8.87;6.80;;;;;;;12.97;76.87;93999.84;5009001;28;20687;-46
2022/12/10 00:31:42;;;;;;;15.50;7.37;;;;;;;12.96;76.98;93991.34;5009219;28;20671;-46
2022/12/10 00:34:10;;;;;;;13.57;6.87;;;;;;;12.97;76.85;93992.16;5009564;28;20197;-47
2022/12/10 00:36:41;;;;;;;15.33;6.57;;;;;;;12.97;76.85;93997.28;5009245;28;20180;-47
2022/12/10 00:39:10;;;;;;;14.93;7.13;;;;;;;12.96;76.93;93981.09;5009268;28;20234;-48
2022/12/10 00:41:37;;;;;;;13.20;6.77;;;;;;;12.96;77.04;93993.94;5009338;28;20250;-47
2022/12/10 00:44:04;;;;;;;14.03;6.70;;;;;;;12.98;77.06;93996.31;5008509;28;20196;-46
2022/12/10 00:46:32;;;;;;;14.67;7.50;;;;;;;12.88;76.87;93985.47;5009468;28;20227;-46
2022/12/10 00:48:59;;;;;;;9.40;6.47;;;;;;;12.97;76.88;93989.59;5009463;28;20196;-45
2022/12/10 00:51:28;;;;;;;9.33;6.60;;;;;;;12.96;77.10;93991.34;5009251;28;20197;-44
2022/12/10 00:53:58;;;;;;;16.80;7.83;;;;;;;12.97;76.83;94008.34;5009379;28;20192;-44
2022/12/10 00:56:27;;;;;;;11.63;7.10;;;;;;;12.98;77.07;93989.41;5008948;28;20298;-43
2022/12/10 00:58:54;;;;;;;13.40;7.03;;;;;;;12.99;76.95;94013.31;4989456;28;20236;-46
2022/12/10 01:01:23;;;;;;;12.67;6.80;;;;;;;12.99;76.99;94005.59;4989827;28;20193;-46
2022/12/10 01:03:52;;;;;;;10.70;6.37;;;;;;;12.99;76.97;94001.25;5008896;28;20188;-45
2022/12/10 01:06:21;;;;;;;14.67;7.13;;;;;;;12.99;77.06;93993.56;5009168;28;20200;-46
2022/12/10 01:08:49;;;;;;;14.63;7.20;;;;;;;12.99;77.16;94003.84;5005873;28;20190;-45
2022/12/10 01:11:20;;;;;;;10.83;5.97;;;;;;;13.00;77.27;94005.44;4990384;28;20189;-44
2022/12/10 01:13:48;;;;;;;13.57;6.97;;;;;;;13.01;77.11;94001.13;5011193;28;20220;-43
2022/12/10 01:16:18;;;;;;;13.37;7.20;;;;;;;13.01;76.99;94001.91;5013222;28;20192;-47
2022/12/10 01:18:44;;;;;;;15.77;8.07;;;;;;;13.02;76.99;93984.75;5012807;28;20208;-44
2022/12/10 01:21:14;;;;;;;13.20;7.47;;;;;;;12.80;76.96;93932.44;5012718;28;20185;-45
2022/12/10 01:23:43;;;;;;;10.83;6.07;;;;;;;13.02;77.11;93980.41;5012443;28;20200;-45
2022/12/10 01:26:11;;;;;;;11.67;6.83;;;;;;;13.02;77.09;93988.09;5012459;28;20192;-48
2022/12/10 01:28:41;;;;;;;13.20;8.10;;;;;;;13.01;76.96;93976.25;5012487;28;20658;-45
2022/12/10 01:31:10;;;;;;;12.67;7.27;;;;;;;13.03;77.04;93974.28;5012163;28;20690;-47
2022/12/10 01:33:37;;;;;;;12.20;6.87;;;;;;;13.03;77.20;93964.03;5012436;28;20200;-48
2022/12/10 01:36:05;;;;;;;14.50;7.07;;;;;;;13.03;77.06;93956.31;5012298;28;20515;-49
2022/12/10 01:38:32;;;;;;;11.47;7.10;;;;;;;13.00;77.29;93977.22;5012041;28;20265;-45
2022/12/10 01:41:00;;;;;;;12.60;7.47;;;;;;;12.99;76.99;93960.19;5011976;28;20270;-44
2022/12/10 01:43:27;;;;;;;10.50;7.23;;;;;;;13.05;77.19;93976.72;5012220;28;20745;-45
2022/12/10 01:45:55;;;;;;;14.47;6.80;;;;;;;13.05;76.99;93985.22;5012277;28;20196;-45
2022/12/10 01:48:22;;;;;;;14.27;7.10;;;;;;;13.06;77.07;93968.81;5012572;28;20188;-45
2022/12/10 01:50:49;;;;;;;8.80;6.13;;;;;;;13.07;77.10;93977.31;5012026;28;20310;-48
2022/12/10 01:53:16;;;;;;;8.40;6.63;;;;;;;13.08;77.24;93971.22;4992084;28;20181;-46
2022/12/10 01:55:48;;;;;;;11.50;6.30;;;;;;;13.09;77.08;93960.00;4994453;28;20298;-44
2022/12/10 01:58:16;;;;;;;10.50;6.87;;;;;;;13.04;77.26;93944.31;5011889;28;20260;-46
2022/12/10 02:00:51;;;;;;;8.57;6.47;;;;;;;13.11;77.07;93957.25;5011535;28;20695;-45
2022/12/10 02:03:26;;;;;;;17.53;6.50;;;;;;;13.11;77.28;93965.75;5012161;28;20207;-45
2022/12/10 02:06:06;;;;;;;12.60;6.77;;;;;;;13.12;77.19;93966.53;5011719;28;20675;-45
2022/12/10 02:08:38;;;;;;;10.27;6.37;;;;;;;12.94;76.93;93946.28;5012042;28;20196;-44
2022/12/10 02:11:17;;;;;;;12.77;7.10;;;;;;;13.13;77.19;93992.06;5011321;28;20251;-45
2022/12/10 02:13:50;;;;;;;11.60;6.73;;;;;;;13.13;77.18;93983.56;5011570;28;20280;-44
2022/12/10 02:16:21;;;;;;;12.33;6.40;;;;;;;13.14;77.29;93978.25;5011354;28;20196;-46
2022/12/10 02:18:53;;;;;;;11.97;6.60;;;;;;;13.14;77.22;93959.47;5011502;28;20224;-50
2022/12/10 02:21:25;;;;;;;9.23;5.57;;;;;;;13.15;77.18;93950.81;5011404;28;20185;-48
2022/12/10 02:23:56;;;;;;;9.20;6.03;;;;;;;13.16;77.23;93944.69;5010844;28;20656;-45
2022/12/10 02:26:31;;;;;;;7.87;5.70;;;;;;;13.17;77.45;93948.84;5010683;28;20187;-47
2022/12/10 02:29:13;;;;;;;11.13;6.63;;;;;;;13.17;77.20;93954.81;5010965;28;20668;-48
2022/12/10 02:31:47;;;;;;;8.87;6.23;;;;;;;13.17;77.32;93944.53;5011040;28;20200;-47
2022/12/10 02:34:15;;;;;;;9.80;6.57;;;;;;;13.18;77.21;93943.56;5011115;28;20196;-45
2022/12/10 02:36:47;;;;;;;13.53;6.33;;;;;;;13.17;77.27;93929.13;5011396;28;20267;-51
2022/12/10 02:39:20;;;;;;;9.77;6.80;;;;;;;13.20;77.26;93928.78;5010893;28;20659;-48
2022/12/10 02:41:50;;;;;;;13.60;6.63;;;;;;;13.21;77.46;93924.44;5011036;28;20192;-45
2022/12/10 02:44:21;;;;;;;10.70;6.13;;;;;;;13.15;77.32;93907.16;5010816;28;20579;-51
2022/12/10 02:46:50;;;;;;;9.47;5.73;;;;;;;13.22;77.20;93926.06;5010830;28;20196;-45
2022/12/10 02:49:18;;;;;;;13.30;6.30;;;;;;;13.19;77.25;93911.78;5010950;28;20189;-49
2022/12/10 02:51:45;;;;;;;13.27;6.23;;;;;;;13.23;77.16;93925.91;5011194;28;20191;-53
2022/12/10 02:54:40;;;;;;;12.30;5.90;;;;;;;13.24;77.34;93937.75;5010364;28;20196;-46
2022/12/10 02:57:19;;;;;;;9.23;5.63;;;;;;;13.26;77.35;93942.75;5010425;28;20750;-48
2022/12/10 03:00:02;;;;;;;8.40;5.13;;;;;;;13.26;77.34;93930.69;5010498;28;20216;-44
2022/12/10 03:02:39;;;;;;;10.20;6.57;;;;;;;13.27;77.43;93926.34;5010034;28;20328;-44
2022/12/10 03:05:13;;;;;;;13.70;6.27;;;;;;;13.29;77.18;93939.81;5010968;28;20250;-45
2022/12/10 03:07:46;;;;;;;9.27;5.93;;;;;;;13.29;77.30;93929.53;5010551;28;20196;-45
2022/12/10 03:10:18;;;;;;;10.00;5.60;;;;;;;13.28;77.17;93943.34;5010395;28;20196;-45
2022/12/10 03:12:50;;;;;;;11.93;6.30;;;;;;;13.31;77.27;93937.88;5010098;28;20188;-45
2022/12/10 03:15:21;;;;;;;9.60;6.33;;;;;;;13.21;77.34;93920.13;5010290;28;20196;-46
2022/12/10 03:17:50;;;;;;;12.03;6.50;;;;;;;13.33;77.25;93927.44;5010491;28;20199;-46
2022/12/10 03:20:17;;;;;;;11.53;5.80;;;;;;;13.34;77.35;93916.19;5010540;28;20302;-46
2022/12/10 03:22:47;;;;;;;12.67;6.13;;;;;;;13.36;77.31;93932.22;5010488;28;20181;-45
2022/12/10 03:25:18;;;;;;;8.63;5.90;;;;;;;13.35;77.40;93941.69;5010141;28;20192;-45
2022/12/10 03:27:49;;;;;;;9.17;6.30;;;;;;;13.37;77.12;93928.69;5009867;28;20200;-44
2022/12/10 03:30:18;;;;;;;9.13;5.47;;;;;;;13.32;77.42;93906.09;5010198;28;20193;-50
2022/12/10 03:32:45;;;;;;;9.53;5.67;;;;;;;13.39;77.34;93919.06;5009607;28;20208;-44
2022/12/10 03:35:15;;;;;;;9.60;6.10;;;;;;;13.39;77.24;93927.56;5010159;28;20246;-46
2022/12/10 03:37:42;;;;;;;9.57;5.80;;;;;;;13.40;77.39;93928.34;5009208;28;20192;-45
2022/12/10 03:40:12;;;;;;;9.43;5.50;;;;;;;13.40;77.26;93929.13;5009716;28;20220;-48
2022/12/10 03:42:40;;;;;;;8.93;5.37;;;;;;;13.34;77.25;93885.38;5010408;28;20275;-46
2022/12/10 03:45:07;;;;;;;8.83;5.70;;;;;;;13.44;77.22;93889.28;5010073;28;20197;-46
2022/12/10 03:47:36;;;;;;;8.77;5.60;;;;;;;13.48;77.14;93893.13;5010319;28;20188;-46
2022/12/10 03:50:03;;;;;;;7.40;5.70;;;;;;;13.49;77.03;93874.16;5009938;28;20645;-44
2022/12/10 03:52:30;;;;;;;8.93;5.90;;;;;;;13.50;77.36;93883.44;5009038;28;20276;-45
2022/12/10 03:54:57;;;;;;;13.43;5.87;;;;;;;13.48;77.24;93879.47;5009484;28;20184;-46
2022/12/10 03:57:24;;;;;;;10.87;5.40;;;;;;;13.56;77.15;93897.38;5009319;28;20227;-45
2022/12/10 03:59:51;;;;;;;7.47;5.10;;;;;;;13.58;77.16;93881.78;5009497;28;20224;-45
2022/12/10 04:02:18;;;;;;;9.40;5.83;;;;;;;13.59;77.26;93886.72;5009477;28;20203;-45
2022/12/10 04:04:46;;;;;;;10.43;5.23;;;;;;;13.60;77.13;93901.19;5009754;28;20279;-45
2022/12/10 04:07:13;;;;;;;10.73;5.23;;;;;;;13.62;77.17;93893.31;5009437;28;20192;-46
2022/12/10 04:09:39;;;;;;;12.47;5.17;;;;;;;13.63;77.29;93898.25;5009690;28;20192;-46
2022/12/10 04:12:07;;;;;;;7.13;4.80;;;;;;;13.66;77.22;93907.41;5009792;28;20199;-46
2022/12/10 04:17:18;;;;;;;5.60;5.03;;;;;;;13.69;77.17;93884.72;5009645;28;20199;-45
2022/12/10 04:19:46;;;;;;;11.03;5.30;;;;;;;13.70;77.38;93895.78;5009599;28;20595;-48
2022/12/10 04:27:49;;;;;;;10.13;5.00;;;;;;;13.72;77.26;93925.47;5009157;28;20607;-45
2022/12/10 04:30:16;;;;;;;7.00;4.53;;;;;;;13.62;77.25;93916.44;5009292;28;20270;-44
2022/12/10 04:32:43;;;;;;;11.37;4.80;;;;;;;13.76;77.17;93910.50;5009058;28;20184;-44
2022/12/10 04:35:11;;;;;;;5.63;4.87;;;;;;;13.81;77.42;93931.31;5009410;28;20543;-47
2022/12/10 04:37:38;;;;;;;6.57;5.10;;;;;;;13.81;77.22;93931.31;5009382;28;20242;-46
2022/12/10 04:40:06;;;;;;;12.07;5.27;;;;;;;13.80;77.35;93917.69;5009406;28;20224;-45
2022/12/10 04:42:34;;;;;;;4.63;4.10;;;;;;;13.85;77.35;93924.06;5009373;28;20589;-45
2022/12/10 04:45:00;;;;;;;7.53;5.50;;;;;;;13.85;77.33;93935.13;5009477;28;20211;-45
2022/12/10 04:47:27;;;;;;;7.43;4.87;;;;;;;13.87;77.30;93935.78;5009780;28;20566;-48
2022/12/10 04:49:54;;;;;;;10.70;5.00;;;;;;;13.74;77.31;93904.75;5013448;28;20195;-45
2022/12/10 04:52:22;;;;;;;5.83;4.13;;;;;;;13.88;77.28;93921.94;5012656;28;20202;-49
2022/12/10 04:54:49;;;;;;;5.77;4.20;;;;;;;13.91;77.18;93928.50;5012801;28;20196;-48
2022/12/10 04:57:16;;;;;;;5.70;4.60;;;;;;;13.91;77.28;93921.59;5012848;28;20785;-48
2022/12/10 04:59:43;;;;;;;8.17;4.90;;;;;;;13.92;77.38;93918.03;5012742;28;20219;-49
2022/12/10 05:02:10;;;;;;;8.00;4.67;;;;;;;13.93;77.38;93929.13;5012770;28;20203;-45
2022/12/10 05:04:36;;;;;;;6.40;4.67;;;;;;;13.90;77.28;93919.97;5012640;28;20185;-47
2022/12/10 05:07:03;;;;;;;11.37;4.87;;;;;;;13.91;77.22;93925.94;5013058;28;20576;-47
2022/12/10 05:09:31;;;;;;;6.90;4.77;;;;;;;13.93;77.39;93937.63;5012216;28;20203;-52
2022/12/10 05:11:58;;;;;;;5.97;4.80;;;;;;;13.94;77.39;93923.00;5012748;28;20196;-45
2022/12/10 05:14:25;;;;;;;5.67;4.30;;;;;;;13.94;77.31;93918.66;5013083;28;20188;-44
2022/12/10 05:16:52;;;;;;;6.27;4.00;;;;;;;13.93;77.40;93917.06;5012518;28;20193;-44
2022/12/10 05:19:21;;;;;;;5.97;4.43;;;;;;;13.91;77.42;93888.19;5012580;28;20208;-45
2022/12/10 05:24:34;;;;;;;10.33;4.60;;;;;;;13.93;77.48;93901.63;5011914;28;20219;-47
2022/12/10 05:27:01;;;;;;;6.60;4.37;;;;;;;13.93;77.47;93904.22;5012161;28;20200;-46
2022/12/10 05:29:28;;;;;;;8.40;4.93;;;;;;;13.93;77.57;93906.78;5012158;28;20195;-46
2022/12/10 05:31:54;;;;;;;7.43;4.80;;;;;;;13.94;77.61;93928.13;5012852;28;20192;-45
2022/12/10 05:34:21;;;;;;;4.63;4.20;;;;;;;13.94;77.55;93930.72;5012660;28;20188;-46
2022/12/10 05:36:48;;;;;;;10.03;4.97;;;;;;;13.94;77.52;93918.66;5012730;28;20184;-47
2022/12/10 05:39:15;;;;;;;8.57;4.43;;;;;;;13.89;77.55;93912.44;5011978;28;20199;-45
2022/12/10 05:41:45;;;;;;;11.63;4.63;;;;;;;13.93;77.70;93931.69;5012103;28;20185;-45
2022/12/10 05:44:12;;;;;;;7.50;4.80;;;;;;;13.93;77.70;93899.06;5012223;28;20215;-47
2022/12/10 05:46:39;;;;;;;6.13;4.83;;;;;;;13.92;77.69;93910.34;5011928;28;20192;-47
2022/12/10 05:49:07;;;;;;;6.30;4.07;;;;;;;13.92;77.63;93946.31;5012519;28;20228;-45
2022/12/10 05:51:36;;;;;;;8.50;5.00;;;;;;;13.76;77.68;93897.66;5012065;28;20204;-44
2022/12/10 05:54:04;;;;;;;9.93;4.93;;;;;;;13.91;77.87;93893.31;5011911;28;20254;-46
2022/12/10 05:56:31;;;;;;;9.13;4.73;;;;;;;13.92;77.78;93924.97;5011105;28;20220;-45
2022/12/10 05:59:01;;;;;;;6.33;4.37;;;;;;;13.94;77.72;93935.84;5011368;28;20188;-45
2022/12/10 06:01:30;;;;;;;12.70;4.50;;;;;;;13.95;77.79;93924.63;5011779;28;20660;-45
2022/12/10 06:03:58;;;;;;;5.27;4.50;;;;;;;13.94;77.78;93938.41;5011400;28;20200;-45
2022/12/10 06:06:26;;;;;;;7.10;4.70;;;;;;;13.95;77.89;93947.75;5011062;28;20279;-45
2022/12/10 06:08:53;;;;;;;6.93;4.53;;;;;;;13.96;77.89;93939.06;5011803;28;20203;-49
2022/12/10 06:11:21;;;;;;;11.17;4.73;;;;;;;13.97;77.84;93953.50;5011639;28;20764;-46
2022/12/10 06:13:48;;;;;;;8.70;4.10;;;;;;;13.96;77.97;93934.72;5011290;28;20197;-45
2022/12/10 06:16:17;;;;;;;7.37;4.47;;;;;;;13.99;77.83;93938.72;5010982;28;20219;-46
2022/12/10 06:18:44;;;;;;;6.77;4.80;;;;;;;14.00;77.90;93951.38;5011592;28;20192;-46
2022/12/10 06:21:14;;;;;;;8.50;4.23;;;;;;;14.01;77.93;93936.75;5010802;28;20224;-46
2022/12/10 06:23:41;;;;;;;8.30;4.97;;;;;;;13.99;77.89;93926.66;5006639;28;20292;-45
2022/12/10 06:26:11;;;;;;;5.40;4.70;;;;;;;14.00;77.94;93940.31;4991883;28;20192;-46
2022/12/10 06:28:38;;;;;;;7.13;4.27;;;;;;;14.03;78.00;93933.03;5004996;28;20188;-46
2022/12/10 06:31:06;;;;;;;10.70;5.00;;;;;;;14.04;77.92;93910.69;5011360;28;20185;-47
2022/12/10 06:33:35;;;;;;;3.87;2.83;;;;;;;14.19;96.17;93892.66;5010425;28;20193;-45
2022/12/10 06:36:05;;;;;;;7.63;3.13;;;;;;;14.72;100.00;93901.84;5011183;28;20199;-46
2022/12/10 06:38:32;;;;;;;5.27;3.63;;;;;;;15.19;100.00;93902.25;5010852;28;20243;-44
2022/12/10 06:40:59;;;;;;;5.00;3.33;;;;;;;15.41;100.00;93903.81;5002129;28;20232;-47
2022/12/10 06:43:25;;;;;;;9.17;3.80;;;;;;;15.51;97.09;93913.81;4991349;28;20186;-47
2022/12/10 06:45:52;;;;;;;7.00;3.57;;;;;;;15.54;95.18;93911.66;5007313;28;20191;-45
2022/12/10 06:48:19;;;;;;;4.30;3.37;;;;;;;15.47;93.76;93917.75;5010694;28;20188;-50
2022/12/10 06:50:47;;;;;;;9.00;4.17;;;;;;;15.54;92.78;93941.78;5011412;28;20185;-49
2022/12/10 06:53:14;;;;;;;6.13;4.10;;;;;;;15.52;92.05;93943.75;5012131;28;20180;-45
2022/12/10 06:55:41;;;;;;;7.07;3.93;;;;;;;15.50;91.29;93935.41;4991890;28;20843;-45
2022/12/10 06:58:07;;;;;;;6.10;3.90;;;;;;;15.49;90.53;93931.22;4988730;28;20203;-52
2022/12/10 07:00:34;;;;;;;7.17;4.30;;;;;;;15.47;90.09;93930.63;4988742;28;20216;-49
2022/12/10 07:03:01;;;;;;;6.40;4.20;;;;;;;15.41;89.38;93926.22;4988528;28;20408;-48
2022/12/10 07:05:28;;;;;;;6.90;4.27;;;;;;;15.42;88.89;93940.72;4988747;28;20189;-48
2022/12/10 07:07:56;;;;;;;7.23;3.80;;;;;;;15.41;88.38;93962.28;5002378;28;20188;-47
2022/12/10 07:10:23;;;;;;;6.13;3.93;;;;;;;15.40;87.90;93950.38;5008056;28;20620;-45
2022/12/10 07:12:50;;;;;;;7.50;4.27;;;;;;;15.37;87.55;93945.59;5008281;28;20196;-46
2022/12/10 07:15:16;;;;;;;7.57;4.40;;;;;;;15.26;87.16;93923.72;5008346;28;20188;-45
2022/12/10 07:17:43;;;;;;;5.47;4.27;;;;;;;15.34;86.93;93938.25;5008375;28;20738;-46
2022/12/10 07:20:12;;;;;;;6.83;4.30;;;;;;;15.32;86.63;93943.56;5007232;28;20228;-46
2022/12/10 07:22:40;;;;;;;9.90;4.57;;;;;;;15.22;86.09;93922.50;5008282;28;20216;-46
2022/12/10 07:25:09;;;;;;;7.03;4.37;;;;;;;15.30;85.94;93928.31;5007645;28;20633;-46
2022/12/10 07:27:35;;;;;;;8.83;4.27;;;;;;;15.30;85.47;93905.13;5007814;28;20720;-45
2022/12/10 07:30:02;;;;;;;7.90;4.53;;;;;;;15.26;85.13;93911.63;5008011;28;20192;-44
2022/12/10 07:32:29;;;;;;;6.30;4.47;;;;;;;15.24;84.91;93907.63;5007875;28;20652;-46
2022/12/10 07:34:56;;;;;;;5.60;4.60;;;;;;;15.34;84.53;93905.56;5007682;28;20188;-46
2022/12/10 07:37:23;;;;;;;8.63;4.70;;;;;;;15.34;84.43;93905.56;5008202;28;20192;-45
2022/12/10 07:39:50;;;;;;;7.57;4.73;;;;;;;15.32;84.15;93921.19;5007620;28;20204;-46
2022/12/10 07:42:18;;;;;;;7.20;4.87;;;;;;;15.36;84.01;93925.97;5007959;28;20193;-45
2022/12/10 07:44:44;;;;;;;5.80;4.30;;;;;;;15.35;83.80;93925.19;5007892;28;20192;-46
2022/12/10 07:47:11;;;;;;;8.93;4.43;;;;;;;15.38;83.55;93927.38;5007179;28;20295;-45
2022/12/10 07:49:38;;;;;;;6.03;4.57;;;;;;;15.44;83.10;93920.69;5007839;28;20191;-46
2022/12/10 07:52:05;;;;;;;7.40;5.00;;;;;;;15.49;82.95;93921.72;5007400;28;20527;-46
2022/12/10 07:54:32;;;;;;;5.83;4.27;;;;;;;15.15;82.48;93842.59;5006862;28;20224;-46
2022/12/10 07:56:59;;;;;;;8.00;4.30;;;;;;;15.62;82.26;93909.91;5007011;28;20232;-46
2022/12/10 07:59:27;;;;;;;9.13;5.13;;;;;;;15.69;81.95;93908.22;5007825;28;20199;-45
2022/12/10 08:01:54;;;;;;;7.17;4.83;;;;;;;15.74;81.63;93903.28;5006749;28;20223;-46
2022/12/10 08:04:21;;;;;;;6.97;4.50;;;;;;;15.75;81.34;93897.94;5007493;28;20272;-45
2022/12/10 08:06:47;;;;;;;10.20;5.63;;;;;;;15.83;81.34;93891.06;5007240;28;20231;-45
2022/12/10 08:09:14;;;;;;;7.37;5.03;;;;;;;15.86;80.97;93877.78;5007351;28;20273;-47
2022/12/10 08:11:41;;;;;;;8.20;5.03;;;;;;;15.89;80.86;93875.63;5007223;28;20691;-46
2022/12/10 08:14:08;;;;;;;6.07;4.70;;;;;;;15.93;80.81;93878.59;5006668;28;20194;-47
2022/12/10 08:16:36;;;;;;;6.20;4.73;;;;;;;15.96;80.60;93873.88;5007246;28;20246;-46
2022/12/10 08:19:03;;;;;;;9.63;5.03;;;;;;;16.00;80.41;93882.81;5006398;28;20196;-46
2022/12/10 08:21:32;;;;;;;5.80;4.53;;;;;;;16.03;80.13;93874.72;5006963;28;20228;-45
2022/12/10 08:23:59;;;;;;;6.07;4.63;;;;;;;16.04;79.99;93873.72;5005987;28;20196;-45
2022/12/10 08:26:28;;;;;;;7.23;4.70;;;;;;;16.12;79.88;93884.88;4997418;28;20664;-46
2022/12/10 08:28:56;;;;;;;10.33;6.10;;;;;;;16.13;79.82;93874.34;5006815;28;20372;-48
2022/12/10 08:31:25;;;;;;;9.33;5.17;;;;;;;16.16;79.77;93866.25;5007276;28;20188;-51
2022/12/10 08:33:53;;;;;;;6.83;4.83;;;;;;;16.20;79.65;93869.22;5005987;28;20197;-45
2022/12/10 08:36:22;;;;;;;6.23;4.63;;;;;;;16.23;79.39;93867.03;5006514;28;20258;-46
2022/12/10 08:38:50;;;;;;;10.03;5.17;;;;;;;16.28;79.22;93862.13;5005127;28;20255;-49
2022/12/10 08:41:19;;;;;;;9.63;5.30;;;;;;;16.33;79.22;93855.59;5008481;28;20220;-49
2022/12/10 08:43:47;;;;;;;12.00;5.07;;;;;;;16.38;79.09;93861.75;5003071;28;20203;-44
2022/12/10 08:46:15;;;;;;;6.50;5.00;;;;;;;16.43;78.85;93859.38;5002285;28;20566;-45
2022/12/10 08:48:43;;;;;;;6.57;5.50;;;;;;;16.49;78.69;93861.22;5006012;28;20196;-46
2022/12/10 08:51:15;;;;;;;7.37;5.40;;;;;;;16.58;78.45;93872.16;5002781;28;20200;-50
2022/12/10 08:53:41;;;;;;;5.93;5.30;;;;;;;16.70;78.10;93855.06;5003441;28;20737;-47
2022/12/10 08:56:09;;;;;;;12.67;5.47;;;;;;;16.80;77.68;93842.63;5005828;28;20228;-47
2022/12/10 08:58:37;;;;;;;9.03;5.33;;;;;;;16.94;77.52;93855.56;5004686;28;20195;-44
2022/12/10 09:01:07;;;;;;;10.27;5.20;;;;;;;17.05;77.25;93848.03;5008946;28;20590;-46
2022/12/10 09:03:34;;;;;;;8.50;4.83;;;;;;;17.14;77.01;93865.88;5008811;28;20579;-46
2022/12/10 09:06:03;;;;;;;8.53;5.70;;;;;;;17.11;76.83;93841.25;5009175;28;20204;-45
2022/12/10 09:08:31;;;;;;;10.60;5.60;;;;;;;17.25;76.66;93835.09;5009472;28;20200;-46
2022/12/10 09:10:58;;;;;;;8.00;5.53;;;;;;;17.37;76.39;93837.09;5009440;28;20195;-51
2022/12/10 09:13:25;;;;;;;9.80;5.70;;;;;;;17.28;76.20;93808.06;5009256;28;20193;-46
2022/12/10 09:15:53;;;;;;;10.93;6.30;;;;;;;17.48;76.21;93829.50;5009148;28;20193;-46
2022/12/10 09:18:20;;;;;;;8.37;6.10;;;;;;;17.54;75.89;93830.50;5001643;28;20599;-45
2022/12/10 09:20:47;;;;;;;11.80;6.70;;;;;;;17.59;75.65;93841.03;4989565;28;20267;-46
2022/12/10 09:23:14;;;;;;;10.93;7.00;;;;;;;17.61;75.69;93844.19;4990328;28;20221;-44
2022/12/10 09:25:52;;;;;;;9.03;6.67;;;;;;;17.65;75.42;93842.78;4990101;28;20189;-47
2022/12/10 09:28:27;;;;;;;10.43;6.40;;;;;;;17.69;75.36;93830.25;4990105;28;20201;-48
2022/12/10 09:30:57;;;;;;;9.20;6.23;;;;;;;17.59;75.24;93771.22;4988962;28;20283;-51
2022/12/10 09:33:24;;;;;;;9.83;6.63;;;;;;;17.76;75.07;93811.19;4990305;28;20229;-47
2022/12/10 09:35:51;;;;;;;8.93;6.47;;;;;;;17.84;74.86;93825.69;4992871;28;20347;-47
2022/12/10 09:38:18;;;;;;;12.03;6.53;;;;;;;17.92;74.73;93822.06;4993551;28;20203;-46
2022/12/10 09:40:51;;;;;;;11.20;6.17;;;;;;;17.96;74.50;93808.56;4993216;28;20223;-47
2022/12/10 09:43:27;;;;;;;9.83;6.70;;;;;;;18.08;74.16;93803.50;4993131;28;20220;-46
2022/12/10 09:46:06;;;;;;;9.87;6.33;;;;;;;18.10;74.40;93798.94;4992890;28;20185;-46
2022/12/10 09:48:44;;;;;;;10.27;6.60;;;;;;;18.16;74.05;93810.25;4993002;28;20209;-46
2022/12/10 09:51:15;;;;;;;9.83;5.70;;;;;;;18.21;73.93;93813.00;4993162;28;20192;-48
2022/12/10 09:53:43;;;;;;;12.13;6.47;;;;;;;18.25;73.90;93801.25;4992356;28;20208;-46
2022/12/10 09:56:20;;;;;;;9.53;6.27;;;;;;;18.33;73.55;93784.69;4992341;28;20233;-47
2022/12/10 09:58:48;;;;;;;8.83;6.90;;;;;;;18.36;73.48;93792.06;4992405;28;20204;-45
2022/12/10 10:01:18;;;;;;;9.67;6.57;;;;;;;18.37;73.61;93798.81;4992829;28;20216;-48
2022/12/10 10:03:45;;;;;;;9.27;5.70;;;;;;;18.45;73.31;93795.97;4992285;28;20198;-45
2022/12/10 10:06:14;;;;;;;8.57;6.03;;;;;;;18.51;73.11;93771.84;4992517;28;20193;-45
2022/12/10 10:08:43;;;;;;;8.03;5.70;;;;;;;18.05;72.77;93703.81;4992384;28;20196;-46
2022/12/10 10:11:17;;;;;;;7.20;5.93;;;;;;;18.64;72.79;93781.31;4992827;28;20197;-46
2022/12/10 10:13:56;;;;;;;9.70;5.97;;;;;;;18.75;72.59;93780.69;4992415;28;20185;-47
2022/12/10 10:16:25;;;;;;;8.83;6.17;;;;;;;18.84;72.34;93784.59;5007540;28;20196;-48
2022/12/10 10:18:58;;;;;;;9.67;6.47;;;;;;;18.92;72.29;93765.41;5008999;28;20201;-48
2022/12/10 10:21:28;;;;;;;9.13;5.83;;;;;;;18.97;72.07;93761.19;5009074;28;20212;-45
2022/12/10 10:23:56;;;;;;;7.13;5.60;;;;;;;19.01;72.01;93764.94;5008730;28;20215;-47
2022/12/10 10:26:26;;;;;;;6.83;5.67;;;;;;;19.04;71.84;93761.91;5009227;28;20276;-45
2022/12/10 10:28:58;;;;;;;7.90;5.47;;;;;;;19.00;71.98;93734.84;5008707;28;20271;-47
2022/12/10 10:31:27;;;;;;;6.87;5.80;;;;;;;19.11;71.73;93727.38;5008673;28;20204;-45
2022/12/10 10:33:57;;;;;;;9.53;6.40;;;;;;;18.97;71.57;93703.38;5007808;28;20199;-46
2022/12/10 10:36:27;;;;;;;8.50;6.47;;;;;;;18.80;71.50;93662.47;5008442;28;20196;-46
2022/12/10 10:38:53;;;;;;;9.53;6.27;;;;;;;19.27;71.69;93732.00;5008512;28;20814;-46
2022/12/10 10:41:21;;;;;;;9.97;6.07;;;;;;;19.32;71.31;93723.59;5008414;28;20211;-45
2022/12/10 10:43:54;;;;;;;14.63;6.07;;;;;;;19.38;71.34;93728.69;5008601;28;20204;-47
2022/12/10 10:46:23;;;;;;;12.10;6.10;;;;;;;19.47;71.54;93731.78;5007552;28;20195;-45
2022/12/10 10:48:51;;;;;;;9.70;5.87;;;;;;;19.52;71.08;93709.41;5008878;28;20808;-45
2022/12/10 10:51:23;;;;;;;8.30;6.20;;;;;;;19.64;71.09;93713.88;5008394;28;20266;-50
2022/12/10 10:53:51;;;;;;;8.23;5.70;;;;;;;19.71;70.72;93723.19;5008263;28;20665;-45
2022/12/10 10:56:22;;;;;;;11.03;6.00;;;;;;;19.77;70.53;93703.34;5008123;28;20262;-48
2022/12/10 10:58:56;;;;;;;12.83;6.97;;;;;;;19.72;70.69;93687.66;5008596;28;20647;-48
2022/12/10 11:01:25;;;;;;;7.57;5.40;;;;;;;19.91;70.49;93715.16;5008035;28;20310;-46
2022/12/10 11:03:57;;;;;;;7.43;5.40;;;;;;;19.94;70.29;93713.91;5008131;28;20200;-46
2022/12/10 11:06:25;;;;;;;6.27;5.60;;;;;;;19.97;70.27;93714.28;5008037;28;20188;-44
2022/12/10 11:08:56;;;;;;;6.73;5.83;;;;;;;19.98;69.98;93692.50;5007774;28;20204;-46
2022/12/10 11:11:32;;;;;;;11.83;5.70;;;;;;;19.98;69.98;93691.72;5007436;28;20708;-46
2022/12/10 11:17:01;;;;;;;9.30;5.50;;;;;;;20.03;69.95;93687.47;5106095;27;20537;-48
2022/12/10 11:19:28;;;;;;;8.63;6.00;;;;;;;20.05;69.78;93656.09;5106934;28;20188;-46
2022/12/10 11:21:55;;;;;;;8.13;5.53;;;;;;;20.07;69.96;93656.63;5107171;28;20659;-48
2022/12/10 11:24:22;;;;;;;9.67;5.43;;;;;;;20.07;69.71;93651.44;5107077;28;20208;-48
2022/12/10 11:27:04;;;;;;;6.32;5.40;;;;;;;20.09;69.66;93646.84;5107523;28;20196;-47
2022/12/10 11:29:45;;;;;;;8.50;6.03;;;;;;;20.09;69.60;93649.44;5107139;28;20185;-48
2022/12/10 11:32:30;;;;;;;9.40;5.50;;;;;;;19.99;69.63;93638.78;5106887;28;20575;-49
2022/12/10 11:35:08;;;;;;;9.20;5.80;;;;;;;20.08;69.55;93649.63;5099104;28;20250;-52
2022/12/10 11:37:39;;;;;;;8.87;5.80;;;;;;;20.12;69.62;93654.19;5104733;28;20212;-52
2022/12/10 11:40:27;;;;;;;8.17;5.40;;;;;;;20.14;69.55;93646.97;5104495;28;20359;-45
2022/12/10 11:43:05;;;;;;;8.77;5.53;;;;;;;20.13;69.28;93637.59;5103099;28;20266;-47
2022/12/10 11:45:46;;;;;;;7.20;5.10;;;;;;;20.14;69.48;93653.97;5103953;28;20185;-47
2022/12/10 11:48:30;;;;;;;10.80;5.63;;;;;;;20.02;69.53;93627.97;5103949;28;20185;-47
2022/12/10 11:51:03;;;;;;;7.03;5.00;;;;;;;20.07;69.36;93640.28;5083808;28;20179;-48
2022/12/10 11:53:46;;;;;;;7.88;5.53;;;;;;;20.05;69.56;93643.09;5093817;28;20190;-46